Tilton, Illinois
Current Conditions -  °F | °C
As of 6:15 PM on Friday 24 Oct 2014 (Local Time) from KDNV Reporting Station
Clear Clear  
Wind Chill: 60°   Ceiling: Unl
Heat Index: 60°   Visibility: 10mi
Dew Point: 51°   Wind: 6mph
Humidity: 73%   Direction: 230°SW
Pressure: 29.98"   Gusts: NA
Location:  40.1°N, 87.65°W
Report Text: KDNV 242315Z AUTO 23005KT 10SM CLR 15/11 A2998 RMK AO2 T01540105
Loading
Personal Weather Stations






























Interactive Weather Map
Tropical Storm Tracking
New forecast layout! Learn more

10-Day Weather Forecast

Advertisements
Track Severe Weather on mobile